Accueil
METAR-TAF:

METAR-TAF

Aéroports :

Ballina, Australie

latitude: 28-50-00S, longitude: 153-33-42E, altitude: 2 m

Observation

Le bulletin a été fait il y a 1 heure et 6 minutes, à 06:00 UTC
Vent 4 kt de est/sud-est
Température 19°C
Humidité 68%
Pression 1024 hPa
Visibilité 10 km ou plus
Nuages fragmentés à une hauteur de 5100 ft
Ciel couvert à une hauteur de 12000 ft

METAR: YBNA 270600Z AUTO 11004KT 9999 // BKN051 OVC120 19/13 Q1024

Heure: 17:06 (07:06 UTC)


TAF: absent

Observations et prévisions météorologiques de plus de 4000 aéroports (messages METAR et TAF).

Les stations disponibles sont représentées par des disques jaunes et rouges sur la carte.

Passer la souris dessus pour voir le nom de la station.

Cliquer dessus pour voir les observations et prévisions météorologiques.

Pour changer de carte: cliquez sur les boutons verts avec une croix noire pour zoomer, sur le bouton vert avec un tiret pour effectuer un zoom arrière, ou sur les flèches vertes pour les cartes adjacentes.


METAR-TAF: